Time;durP1;ratioP1;P1;durP2;ratioP2;P2;SDS_P1;SDS_P2;PMS_P1;PMS_P2;Temp;Humidity;BMP_temperature;BMP_pressure;BME280_temperature;BME280_humidity;BME280_pressure;Samples;Min_cycle;Max_cycle;Signal;HPM_P1;HPM_P2
2024/01/05 00:00:42;;;;;;;17.15;6.55;;;6.20;71.80;;;;;;4997933;28;20037;-60
2024/01/05 00:03:08;;;;;;;17.88;7.35;;;6.10;71.90;;;;;;5001328;28;20042;-61
2024/01/05 00:05:35;;;;;;;16.67;6.40;;;6.10;71.80;;;;;;5002420;28;20042;-62
2024/01/05 00:08:01;;;;;;;16.30;6.65;;;6.10;72.00;;;;;;5004557;28;20483;-61
2024/01/05 00:10:27;;;;;;;16.98;7.68;;;6.10;72.00;;;;;;5003545;28;20504;-61
2024/01/05 00:12:52;;;;;;;17.92;7.10;;;6.10;72.00;;;;;;4996360;28;20052;-60
2024/01/05 00:15:18;;;;;;;18.77;7.32;;;6.10;72.10;;;;;;4999715;28;20125;-61
2024/01/05 00:17:44;;;;;;;16.40;7.60;;;6.10;72.20;;;;;;5008636;28;20090;-60
2024/01/05 00:20:10;;;;;;;19.48;6.88;;;6.10;72.30;;;;;;5017447;28;20030;-61
2024/01/05 00:22:36;;;;;;;17.63;6.72;;;6.10;72.40;;;;;;5015185;28;20022;-60
2024/01/05 00:25:03;;;;;;;16.15;7.05;;;6.10;72.20;;;;;;5009869;28;20021;-60
2024/01/05 00:27:28;;;;;;;15.82;6.70;;;6.10;72.50;;;;;;5006410;28;20030;-61
2024/01/05 00:29:54;;;;;;;19.60;7.15;;;6.10;72.50;;;;;;5002587;28;20034;-61
2024/01/05 00:32:20;;;;;;;13.15;5.50;;;6.10;72.50;;;;;;5000401;28;20061;-62
2024/01/05 00:34:46;;;;;;;9.63;5.30;;;6.10;72.70;;;;;;5000261;28;20369;-60
2024/01/05 00:37:12;;;;;;;9.93;4.93;;;6.10;72.70;;;;;;5004015;28;20042;-61
2024/01/05 00:39:37;;;;;;;11.05;3.85;;;6.10;72.70;;;;;;4995834;28;20556;-60
2024/01/05 00:42:05;;;;;;;9.75;4.10;;;6.10;72.70;;;;;;4999884;28;20113;-61
2024/01/05 00:44:30;;;;;;;8.00;3.65;;;6.10;72.70;;;;;;5001907;28;20029;-60
2024/01/05 00:46:56;;;;;;;7.45;3.65;;;6.10;72.70;;;;;;4922621;28;20030;-60
2024/01/05 00:49:23;;;;;;;9.77;3.83;;;6.10;72.60;;;;;;4994742;28;20042;-61
2024/01/05 00:51:48;;;;;;;12.73;4.30;;;6.10;72.50;;;;;;4999706;28;20034;-60
2024/01/05 00:54:14;;;;;;;8.43;3.33;;;6.00;72.30;;;;;;4995961;28;20044;-61
2024/01/05 00:56:40;;;;;;;12.70;4.05;;;6.00;72.10;;;;;;4998829;28;20029;-61
2024/01/05 00:59:06;;;;;;;6.93;3.83;;;6.00;72.70;;;;;;5000443;28;20034;-61
2024/01/05 01:01:32;;;;;;;6.78;3.20;;;6.00;71.50;;;;;;4999024;28;20496;-61
2024/01/05 01:03:58;;;;;;;7.53;3.72;;;6.00;72.00;;;;;;4995986;28;20042;-60
2024/01/05 01:06:24;;;;;;;6.22;3.58;;;5.90;71.90;;;;;;5000253;28;20036;-61
2024/01/05 01:08:50;;;;;;;9.02;3.78;;;5.90;72.00;;;;;;5002868;28;20037;-60
2024/01/05 01:11:16;;;;;;;9.43;3.40;;;5.90;72.20;;;;;;5003094;28;20064;-60
2024/01/05 01:13:42;;;;;;;9.48;3.60;;;5.90;72.20;;;;;;4998871;28;20039;-62
2024/01/05 01:16:09;;;;;;;5.18;2.88;;;5.90;72.10;;;;;;4996797;28;20045;-61
2024/01/05 01:18:34;;;;;;;5.97;3.33;;;5.80;72.00;;;;;;4998831;28;20030;-60
2024/01/05 01:21:00;;;;;;;7.03;3.20;;;5.80;72.00;;;;;;4998153;28;20389;-60
2024/01/05 01:23:26;;;;;;;5.13;3.00;;;5.80;72.00;;;;;;5000870;28;20088;-61
2024/01/05 01:25:51;;;;;;;7.57;3.63;;;5.80;72.00;;;;;;5000605;28;20038;-60
2024/01/05 01:28:17;;;;;;;5.57;2.95;;;5.80;72.00;;;;;;4998677;28;20310;-60
2024/01/05 01:30:42;;;;;;;5.30;3.38;;;5.70;72.10;;;;;;4999619;28;20044;-60
2024/01/05 01:33:08;;;;;;;6.65;3.63;;;5.70;72.10;;;;;;4997609;28;20026;-60
2024/01/05 01:35:34;;;;;;;9.55;4.20;;;5.70;72.10;;;;;;5001587;28;20346;-60
2024/01/05 01:37:59;;;;;;;14.07;4.40;;;5.70;72.10;;;;;;5000316;28;20065;-61
2024/01/05 01:40:26;;;;;;;9.75;4.70;;;5.70;72.10;;;;;;4994786;28;20030;-60
2024/01/05 01:42:52;;;;;;;7.38;3.80;;;5.70;72.20;;;;;;4989988;28;20034;-60
2024/01/05 01:45:18;;;;;;;12.07;4.35;;;5.70;72.20;;;;;;4907446;28;20907;-61
2024/01/05 01:47:45;;;;;;;10.80;4.18;;;5.70;72.20;;;;;;4994003;28;20037;-61
2024/01/05 01:50:12;;;;;;;7.45;3.90;;;5.70;72.20;;;;;;4996721;28;20821;-61
2024/01/05 01:52:40;;;;;;;11.70;4.45;;;5.60;72.30;;;;;;4994364;28;20047;-60
2024/01/05 01:55:07;;;;;;;8.60;3.65;;;5.60;72.20;;;;;;4996247;28;20033;-61
2024/01/05 01:57:34;;;;;;;8.43;4.65;;;5.60;72.20;;;;;;4998248;28;20088;-61
2024/01/05 02:00:00;;;;;;;8.05;3.78;;;5.60;72.30;;;;;;5002544;28;20030;-61
2024/01/05 02:02:27;;;;;;;10.02;4.40;;;5.60;72.20;;;;;;4995792;28;20043;-59
2024/01/05 02:04:53;;;;;;;8.10;4.10;;;5.60;72.30;;;;;;4994398;28;20038;-60
2024/01/05 02:07:19;;;;;;;11.05;4.63;;;5.60;72.20;;;;;;5001514;28;20026;-61
2024/01/05 02:09:45;;;;;;;8.38;4.70;;;5.60;72.20;;;;;;4994663;28;20041;-60
2024/01/05 02:12:10;;;;;;;9.23;4.60;;;5.60;72.20;;;;;;5001752;28;20056;-60
2024/01/05 02:14:36;;;;;;;8.65;4.10;;;5.60;72.30;;;;;;5000775;28;20496;-61
2024/01/05 02:17:02;;;;;;;6.53;4.05;;;5.60;72.30;;;;;;5000913;28;20034;-60
2024/01/05 02:19:27;;;;;;;10.82;4.07;;;5.60;72.30;;;;;;5001498;28;20118;-60
2024/01/05 02:21:56;;;;;;;7.40;3.83;;;5.60;72.20;;;;;;5001444;28;20493;-60
2024/01/05 02:24:22;;;;;;;7.85;4.40;;;5.60;72.30;;;;;;5003523;28;20108;-60
2024/01/05 02:26:47;;;;;;;6.07;4.03;;;5.60;72.20;;;;;;4998599;28;20032;-62
2024/01/05 02:29:21;;;;;;;7.07;4.00;;;5.60;72.30;;;;;;5004684;28;20033;-60
2024/01/05 02:31:47;;;;;;;7.85;3.72;;;5.60;72.30;;;;;;5000191;28;20029;-62
2024/01/05 02:34:13;;;;;;;7.22;3.70;;;5.60;72.30;;;;;;5000419;28;20048;-60
2024/01/05 02:36:38;;;;;;;8.05;4.20;;;5.60;72.30;;;;;;5004684;28;20038;-60
2024/01/05 02:39:04;;;;;;;8.25;4.00;;;5.60;72.40;;;;;;5002090;28;20084;-60
2024/01/05 02:41:33;;;;;;;5.75;3.47;;;5.60;72.40;;;;;;5002133;28;20080;-60
2024/01/05 02:43:58;;;;;;;5.97;3.08;;;5.50;72.40;;;;;;5000838;28;20030;-60
2024/01/05 02:46:25;;;;;;;7.90;3.33;;;5.50;72.30;;;;;;4911720;28;20060;-59
2024/01/05 02:48:50;;;;;;;9.90;3.33;;;5.50;72.30;;;;;;5004217;28;20079;-60
2024/01/05 02:51:16;;;;;;;8.80;3.80;;;5.50;72.40;;;;;;5002670;28;20042;-61
2024/01/05 02:53:42;;;;;;;7.13;3.42;;;5.50;72.30;;;;;;4998823;28;20509;-61
2024/01/05 02:56:08;;;;;;;6.43;3.10;;;5.50;72.40;;;;;;5001007;28;20034;-60
2024/01/05 02:58:34;;;;;;;7.75;3.47;;;5.50;72.50;;;;;;5005430;28;20037;-61
2024/01/05 03:00:59;;;;;;;8.82;3.28;;;5.50;72.30;;;;;;5002045;28;20035;-60
2024/01/05 03:03:25;;;;;;;9.57;4.15;;;5.50;72.50;;;;;;5000591;28;20490;-60
2024/01/05 03:05:51;;;;;;;9.52;3.67;;;5.50;72.50;;;;;;4997119;28;20109;-60
2024/01/05 03:08:16;;;;;;;12.35;4.60;;;5.40;72.50;;;;;;5002796;28;20428;-61
2024/01/05 03:10:42;;;;;;;8.40;4.30;;;5.40;72.50;;;;;;5003979;28;20111;-59
2024/01/05 03:13:07;;;;;;;11.65;4.78;;;5.40;72.30;;;;;;5005892;28;20034;-61
2024/01/05 03:15:33;;;;;;;9.35;4.85;;;5.40;72.40;;;;;;5004752;28;20041;-61
2024/01/05 03:17:59;;;;;;;8.27;4.97;;;5.40;72.50;;;;;;4998659;28;20042;-60
2024/01/05 03:20:25;;;;;;;7.68;4.63;;;5.40;72.60;;;;;;5002227;28;20025;-59
2024/01/05 03:22:51;;;;;;;10.38;4.35;;;5.40;72.70;;;;;;4997104;28;20110;-60
2024/01/05 03:25:16;;;;;;;7.15;4.38;;;5.40;72.80;;;;;;5002612;28;20037;-62
2024/01/05 03:27:42;;;;;;;12.35;5.22;;;5.40;72.90;;;;;;5003219;28;20029;-63
2024/01/05 03:30:08;;;;;;;9.73;5.43;;;5.40;72.80;;;;;;5002593;28;20087;-61
2024/01/05 03:32:33;;;;;;;10.57;5.13;;;5.40;72.80;;;;;;4999195;28;20042;-60
2024/01/05 03:34:59;;;;;;;11.52;4.93;;;5.40;72.90;;;;;;5003376;28;20675;-60
2024/01/05 03:37:25;;;;;;;6.68;4.10;;;5.40;72.80;;;;;;4998035;28;20042;-60
2024/01/05 03:39:50;;;;;;;10.50;4.90;;;5.40;72.90;;;;;;4998628;28;20030;-60
2024/01/05 03:42:16;;;;;;;9.57;4.60;;;5.40;73.10;;;;;;4999305;28;20049;-60
2024/01/05 03:44:42;;;;;;;9.48;4.10;;;5.40;73.20;;;;;;5000999;28;20388;-61
2024/01/05 03:47:09;;;;;;;11.00;5.15;;;5.40;73.20;;;;;;4946750;28;20042;-60
2024/01/05 03:49:36;;;;;;;5.55;4.00;;;5.40;73.20;;;;;;5000365;28;20034;-62
2024/01/05 03:52:01;;;;;;;8.18;4.82;;;5.40;73.10;;;;;;5003409;28;20048;-62
2024/01/05 03:54:27;;;;;;;10.50;4.70;;;5.40;73.10;;;;;;4999451;28;20046;-61
2024/01/05 03:56:53;;;;;;;8.35;4.55;;;5.40;73.00;;;;;;5000323;28;20073;-60
2024/01/05 03:59:18;;;;;;;10.07;4.90;;;5.40;73.00;;;;;;5000512;28;20030;-60
2024/01/05 04:01:45;;;;;;;11.55;4.55;;;5.40;72.90;;;;;;4998576;28;20061;-61
2024/01/05 04:04:11;;;;;;;7.43;4.50;;;5.40;72.90;;;;;;5003840;28;20030;-61
2024/01/05 04:06:36;;;;;;;9.55;4.57;;;5.40;73.10;;;;;;4998769;28;20089;-59
2024/01/05 04:09:03;;;;;;;14.45;4.88;;;5.40;73.20;;;;;;5003661;28;20393;-60
2024/01/05 04:11:30;;;;;;;13.48;4.60;;;5.40;73.20;;;;;;4999579;28;20185;-60
2024/01/05 04:13:57;;;;;;;11.25;4.47;;;5.40;73.20;;;;;;5003224;28;20408;-61
2024/01/05 04:16:22;;;;;;;8.95;4.50;;;5.40;73.30;;;;;;5001312;28;20083;-61
2024/01/05 04:18:49;;;;;;;8.65;4.43;;;5.40;73.40;;;;;;5002170;28;20033;-60
2024/01/05 04:21:14;;;;;;;9.90;4.78;;;5.40;73.50;;;;;;4998131;28;20037;-60
2024/01/05 04:23:41;;;;;;;14.55;4.53;;;5.40;73.50;;;;;;5001623;28;20026;-60
2024/01/05 04:26:07;;;;;;;11.07;4.65;;;5.50;73.50;;;;;;4999554;28;20030;-61
2024/01/05 04:28:32;;;;;;;8.23;5.18;;;5.40;73.40;;;;;;5000921;28;20030;-61
2024/01/05 04:30:58;;;;;;;8.18;5.00;;;5.40;73.30;;;;;;5001067;28;20386;-60
2024/01/05 04:33:24;;;;;;;8.05;4.93;;;5.50;73.40;;;;;;4997273;28;20037;-61
2024/01/05 04:35:50;;;;;;;14.00;6.32;;;5.40;73.30;;;;;;4998608;28;20045;-60
2024/01/05 04:38:16;;;;;;;11.40;6.30;;;5.40;73.30;;;;;;5003596;28;20033;-60
2024/01/05 04:40:41;;;;;;;18.80;7.22;;;5.50;73.30;;;;;;4996412;28;20041;-61
2024/01/05 04:43:07;;;;;;;20.73;9.77;;;5.50;73.50;;;;;;5001630;28;20097;-60
2024/01/05 04:45:36;;;;;;;25.02;11.07;;;5.50;73.50;;;;;;4913542;28;20026;-60
2024/01/05 04:48:03;;;;;;;21.13;10.15;;;5.50;73.50;;;;;;5000143;28;20124;-60
2024/01/05 04:50:28;;;;;;;19.25;8.20;;;5.50;73.50;;;;;;4996382;28;20030;-60
2024/01/05 04:52:55;;;;;;;14.98;6.50;;;5.50;73.50;;;;;;5003290;28;20053;-61
2024/01/05 04:55:21;;;;;;;12.00;5.63;;;5.50;73.50;;;;;;4999614;28;20050;-62
2024/01/05 04:57:46;;;;;;;11.18;5.10;;;5.50;73.50;;;;;;5001167;28;20053;-61
2024/01/05 05:00:13;;;;;;;11.55;5.22;;;5.50;73.40;;;;;;4999595;28;20029;-62
2024/01/05 05:02:38;;;;;;;10.55;4.88;;;5.50;73.50;;;;;;4997580;28;20028;-60
2024/01/05 05:05:04;;;;;;;8.18;5.15;;;5.50;73.60;;;;;;4999376;28;20427;-60
2024/01/05 05:07:30;;;;;;;10.70;5.18;;;5.50;73.50;;;;;;5001936;28;20061;-61
2024/01/05 05:09:56;;;;;;;9.30;5.38;;;5.50;73.60;;;;;;4998587;28;20493;-60
2024/01/05 05:12:21;;;;;;;8.90;4.80;;;5.50;73.70;;;;;;4995201;28;20080;-61
2024/01/05 05:14:47;;;;;;;12.80;5.00;;;5.50;73.90;;;;;;4999348;28;20477;-61
2024/01/05 05:17:12;;;;;;;10.13;4.75;;;5.50;73.90;;;;;;5000192;28;20113;-61
2024/01/05 05:19:38;;;;;;;10.95;5.07;;;5.50;73.90;;;;;;5002239;28;20024;-62
2024/01/05 05:22:04;;;;;;;12.70;5.82;;;5.50;73.90;;;;;;5003151;28;20030;-60
2024/01/05 05:24:30;;;;;;;11.45;5.82;;;5.50;73.70;;;;;;4999020;28;20026;-60
2024/01/05 05:26:56;;;;;;;9.95;5.40;;;5.50;73.90;;;;;;5002015;28;20026;-60
2024/01/05 05:29:21;;;;;;;9.38;5.05;;;5.50;74.10;;;;;;4995196;28;20458;-59
2024/01/05 05:31:47;;;;;;;10.85;4.60;;;5.50;74.20;;;;;;4996567;28;20125;-61
2024/01/05 05:34:13;;;;;;;9.98;4.82;;;5.50;74.20;;;;;;4990812;28;20065;-60
2024/01/05 05:36:38;;;;;;;9.82;4.88;;;5.60;74.30;;;;;;4999141;28;20028;-60
2024/01/05 05:39:04;;;;;;;8.20;4.18;;;5.60;74.40;;;;;;5000130;28;20057;-60
2024/01/05 05:41:30;;;;;;;9.88;4.60;;;5.60;74.40;;;;;;5000572;28;20396;-60
2024/01/05 05:43:55;;;;;;;9.48;4.47;;;5.60;74.20;;;;;;4998312;28;20045;-60
2024/01/05 05:46:21;;;;;;;7.57;4.55;;;5.60;74.20;;;;;;4996402;28;20045;-61
2024/01/05 05:48:46;;;;;;;9.05;4.32;;;5.70;74.10;;;;;;4910825;28;20551;-59
2024/01/05 05:51:13;;;;;;;7.53;4.32;;;5.70;74.00;;;;;;4995911;28;20042;-60
2024/01/05 05:53:39;;;;;;;7.65;4.20;;;5.70;73.90;;;;;;4991302;28;20041;-61
2024/01/05 05:56:05;;;;;;;10.77;4.07;;;5.70;73.90;;;;;;5000819;28;20030;-60
2024/01/05 05:58:30;;;;;;;9.90;4.75;;;5.70;73.90;;;;;;4994947;28;20408;-60
2024/01/05 06:00:56;;;;;;;6.72;4.18;;;5.70;73.90;;;;;;4998609;28;20478;-60
2024/01/05 06:03:25;;;;;;;6.93;4.03;;;5.70;73.90;;;;;;4994903;28;20050;-62
2024/01/05 06:05:50;;;;;;;7.60;4.43;;;5.70;73.90;;;;;;5000733;28;20120;-61
2024/01/05 06:08:16;;;;;;;8.43;4.90;;;5.70;73.90;;;;;;4996574;28;20374;-60
2024/01/05 06:10:42;;;;;;;8.43;4.85;;;5.70;73.90;;;;;;5002862;28;20042;-61
2024/01/05 06:13:08;;;;;;;16.45;4.85;;;5.70;73.90;;;;;;4997780;28;20109;-62
2024/01/05 06:15:34;;;;;;;8.88;5.00;;;5.70;74.00;;;;;;4995442;28;20117;-61
2024/01/05 06:17:59;;;;;;;7.78;4.32;;;5.70;73.90;;;;;;4997301;28;20060;-61
2024/01/05 06:20:25;;;;;;;8.95;4.88;;;5.70;73.90;;;;;;5004332;28;20108;-61
2024/01/05 06:22:51;;;;;;;7.90;4.70;;;5.70;73.90;;;;;;4998028;28;20034;-61
2024/01/05 06:25:17;;;;;;;7.88;4.32;;;5.70;73.90;;;;;;4999621;28;20040;-62
2024/01/05 06:27:42;;;;;;;8.48;5.07;;;5.80;73.90;;;;;;4999339;28;20076;-60
2024/01/05 06:30:11;;;;;;;10.35;4.50;;;5.80;73.90;;;;;;4998743;28;20034;-61
2024/01/05 06:32:38;;;;;;;11.00;4.80;;;5.80;73.90;;;;;;4995739;28;20049;-61
2024/01/05 06:35:07;;;;;;;10.38;5.40;;;5.80;73.80;;;;;;5003471;28;20061;-61
2024/01/05 06:37:32;;;;;;;7.30;4.63;;;5.80;73.80;;;;;;4998912;28;20117;-61
2024/01/05 06:39:58;;;;;;;8.18;4.63;;;5.80;73.70;;;;;;4999325;28;20584;-61
2024/01/05 06:42:24;;;;;;;9.95;4.88;;;5.80;73.70;;;;;;4998237;28;20022;-61
2024/01/05 06:44:50;;;;;;;9.05;4.57;;;5.80;73.70;;;;;;4909423;28;20615;-61
2024/01/05 06:47:16;;;;;;;10.05;4.32;;;5.80;73.70;;;;;;4999892;28;20082;-61
2024/01/05 06:49:42;;;;;;;11.40;4.93;;;5.70;73.50;;;;;;4994803;28;20034;-61
2024/01/05 06:52:08;;;;;;;14.02;5.65;;;5.70;73.40;;;;;;4995412;28;20387;-60
2024/01/05 06:54:34;;;;;;;9.52;5.60;;;5.70;73.30;;;;;;4999049;28;20050;-61
2024/01/05 06:57:00;;;;;;;9.18;5.95;;;5.70;73.50;;;;;;5002918;28;20144;-60
2024/01/05 06:59:30;;;;;;;10.23;5.65;;;5.70;73.50;;;;;;5005318;28;20132;-60
2024/01/05 07:01:56;;;;;;;14.50;8.45;;;5.70;73.50;;;;;;5002628;28;20484;-61
2024/01/05 07:04:22;;;;;;;15.40;8.52;;;5.70;73.60;;;;;;4998081;28;20079;-61
2024/01/05 07:06:47;;;;;;;12.32;7.85;;;5.70;73.70;;;;;;4999669;28;20033;-60
2024/01/05 07:09:13;;;;;;;14.98;8.65;;;5.70;73.70;;;;;;5003194;28;20037;-59
2024/01/05 07:11:39;;;;;;;14.10;8.18;;;5.60;73.70;;;;;;4998938;28;20408;-60
2024/01/05 07:14:05;;;;;;;11.35;7.53;;;5.60;73.80;;;;;;5003155;28;20030;-61
2024/01/05 07:16:30;;;;;;;11.60;7.65;;;5.70;73.90;;;;;;4998608;28;20038;-60
2024/01/05 07:18:56;;;;;;;12.93;7.80;;;5.70;73.90;;;;;;5002884;28;20053;-61
2024/01/05 07:21:22;;;;;;;15.82;7.20;;;5.70;73.90;;;;;;5004457;28;20484;-61
2024/01/05 07:23:48;;;;;;;12.27;7.05;;;5.70;73.90;;;;;;5005362;28;20030;-60
2024/01/05 07:26:20;;;;;;;12.80;6.53;;;5.70;73.90;;;;;;5001963;28;20046;-61
2024/01/05 07:28:46;;;;;;;13.23;6.28;;;5.70;74.00;;;;;;5001022;28;20550;-62
2024/01/05 07:31:11;;;;;;;12.25;6.63;;;5.70;73.80;;;;;;5003730;28;20045;-63
2024/01/05 07:33:39;;;;;;;9.13;5.88;;;5.70;74.00;;;;;;5007066;28;20029;-62
2024/01/05 07:36:05;;;;;;;11.10;6.15;;;5.70;74.80;;;;;;5005182;28;20428;-62
2024/01/05 07:38:37;;;;;;;15.88;6.63;;;5.70;74.10;;;;;;5006467;28;20083;-62
2024/01/05 07:41:03;;;;;;;11.77;5.95;;;5.70;74.20;;;;;;5009697;28;20496;-62
2024/01/05 07:43:32;;;;;;;13.70;6.88;;;5.80;74.90;;;;;;5008695;28;20034;-62
2024/01/05 07:46:01;;;;;;;21.30;10.77;;;5.80;74.10;;;;;;4932658;28;20029;-62
2024/01/05 07:48:26;;;;;;;19.27;10.52;;;5.80;73.80;;;;;;4999948;28;20018;-63
2024/01/05 07:50:52;;;;;;;18.65;9.95;;;5.80;73.90;;;;;;5008166;28;20423;-62
2024/01/05 07:53:18;;;;;;;20.00;9.77;;;5.80;74.10;;;;;;5003876;28;20084;-63
2024/01/05 07:55:43;;;;;;;16.25;10.25;;;5.80;74.20;;;;;;5000139;28;20493;-62
2024/01/05 07:58:09;;;;;;;21.20;12.48;;;5.80;74.20;;;;;;5007957;28;20034;-63
2024/01/05 08:00:35;;;;;;;21.05;11.57;;;5.90;74.20;;;;;;5003768;28;20073;-63
2024/01/05 08:03:03;;;;;;;11.73;7.28;;;5.90;74.20;;;;;;5006463;28;20038;-63
2024/01/05 08:05:28;;;;;;;12.68;6.30;;;5.90;74.00;;;;;;5007606;28;20121;-63
2024/01/05 08:07:54;;;;;;;14.75;6.90;;;5.90;74.00;;;;;;5005453;28;20160;-62
2024/01/05 08:10:20;;;;;;;11.38;6.60;;;5.90;74.00;;;;;;5001703;28;20042;-63
2024/01/05 08:12:45;;;;;;;15.57;7.55;;;6.00;74.10;;;;;;5001728;28;20038;-63
2024/01/05 08:15:11;;;;;;;12.95;7.18;;;5.90;73.90;;;;;;4998697;28;20469;-64
2024/01/05 08:17:37;;;;;;;14.05;7.07;;;6.00;74.10;;;;;;5004489;28;20042;-64
2024/01/05 08:20:03;;;;;;;15.15;7.22;;;6.00;74.10;;;;;;4995881;28;20305;-62
2024/01/05 08:22:28;;;;;;;11.63;6.57;;;6.00;74.10;;;;;;5004271;28;20093;-63
2024/01/05 08:24:54;;;;;;;11.75;6.30;;;6.00;74.10;;;;;;5002376;28;20026;-63
2024/01/05 08:27:20;;;;;;;9.60;5.90;;;6.10;74.20;;;;;;5005066;28;20439;-62
2024/01/05 08:29:45;;;;;;;12.65;6.65;;;6.10;74.20;;;;;;5005413;28;20022;-63
2024/01/05 08:32:11;;;;;;;11.95;5.95;;;6.20;74.30;;;;;;5001700;28;20042;-63
2024/01/05 08:34:36;;;;;;;17.10;7.25;;;6.20;74.30;;;;;;4997107;28;20041;-63
2024/01/05 08:37:03;;;;;;;12.88;6.63;;;6.30;74.30;;;;;;5002360;28;20030;-62
2024/01/05 08:39:29;;;;;;;14.63;7.38;;;6.30;74.40;;;;;;5005021;28;20062;-64
2024/01/05 08:41:54;;;;;;;11.38;6.60;;;6.40;74.40;;;;;;5000746;28;20064;-64
2024/01/05 08:44:34;;;;;;;15.20;6.90;;;6.40;74.40;;;;;;4986781;28;20033;-61
2024/01/05 08:47:01;;;;;;;11.60;6.63;;;6.50;74.50;;;;;;5005019;28;20042;-63
2024/01/05 08:49:28;;;;;;;16.23;7.55;;;6.60;74.30;;;;;;5002624;28;20036;-63
2024/01/05 08:51:53;;;;;;;12.07;7.40;;;6.60;74.10;;;;;;5005541;28;20081;-63
2024/01/05 08:54:19;;;;;;;11.38;7.25;;;6.70;74.00;;;;;;5004397;28;20088;-63
2024/01/05 08:56:45;;;;;;;14.75;7.00;;;6.70;73.80;;;;;;5005560;28;20444;-62
2024/01/05 08:59:11;;;;;;;10.88;7.13;;;6.80;73.80;;;;;;5006908;28;20036;-64
2024/01/05 09:01:37;;;;;;;13.35;7.15;;;6.80;73.60;;;;;;5006967;28;20129;-63
2024/01/05 09:04:05;;;;;;;12.30;7.10;;;6.90;73.50;;;;;;5000956;28;20026;-63
2024/01/05 09:06:32;;;;;;;14.98;7.65;;;6.90;73.40;;;;;;5006237;28;20026;-63
2024/01/05 09:08:59;;;;;;;14.57;7.85;;;7.00;73.30;;;;;;5002802;28;20092;-62
2024/01/05 09:11:24;;;;;;;13.25;7.22;;;7.00;73.30;;;;;;5005030;28;20044;-63
2024/01/05 09:13:50;;;;;;;13.43;7.18;;;7.10;73.30;;;;;;5002242;28;20058;-62
2024/01/05 09:16:16;;;;;;;13.48;7.47;;;7.20;73.30;;;;;;5000320;28;20073;-62
2024/01/05 09:18:42;;;;;;;14.45;7.53;;;7.20;73.20;;;;;;4999750;28;20116;-63
2024/01/05 09:21:08;;;;;;;12.27;6.82;;;7.20;73.00;;;;;;5004795;28;20041;-63
2024/01/05 09:23:34;;;;;;;11.95;6.25;;;7.30;72.80;;;;;;5001115;28;20669;-62
2024/01/05 09:26:00;;;;;;;10.20;5.40;;;7.30;72.70;;;;;;5002056;28;20088;-63
2024/01/05 09:28:25;;;;;;;10.20;5.82;;;7.40;72.70;;;;;;5003536;28;20040;-64
2024/01/05 09:30:51;;;;;;;12.27;6.55;;;7.40;72.70;;;;;;5001647;28;20128;-63
2024/01/05 09:33:17;;;;;;;10.50;5.35;;;7.50;72.80;;;;;;4998950;28;20049;-63
2024/01/05 09:35:42;;;;;;;13.10;5.78;;;7.50;72.90;;;;;;5001181;28;20508;-63
2024/01/05 09:38:08;;;;;;;10.90;5.65;;;7.60;72.80;;;;;;4998217;28;20034;-62
2024/01/05 09:40:34;;;;;;;16.42;6.25;;;7.60;72.70;;;;;;5004036;28;20607;-62
2024/01/05 09:43:02;;;;;;;9.35;5.55;;;7.70;72.70;;;;;;4999985;28;20592;-63
2024/01/05 09:45:29;;;;;;;12.02;6.65;;;7.80;72.70;;;;;;4941054;28;20037;-62
2024/01/05 09:48:00;;;;;;;14.60;6.72;;;7.80;72.60;;;;;;4996833;28;20031;-63
2024/01/05 09:50:26;;;;;;;13.40;7.18;;;7.90;72.40;;;;;;5002435;28;20072;-62
2024/01/05 09:52:52;;;;;;;19.00;6.55;;;7.90;72.30;;;;;;5001747;28;20105;-62
2024/01/05 09:55:17;;;;;;;7.88;4.85;;;8.00;72.30;;;;;;5002369;28;20488;-62
2024/01/05 09:57:45;;;;;;;10.20;5.80;;;8.10;72.20;;;;;;5001594;28;20164;-63
2024/01/05 10:00:15;;;;;;;10.38;5.03;;;8.10;72.10;;;;;;5003431;28;20109;-63
2024/01/05 10:03:07;;;;;;;10.93;4.68;;;8.20;72.00;;;;;;4998856;28;20033;-63
2024/01/05 10:05:33;;;;;;;9.85;4.95;;;8.20;71.50;;;;;;5001831;28;20117;-62
2024/01/05 10:07:59;;;;;;;11.35;5.10;;;8.20;71.40;;;;;;5002378;28;21340;-62
2024/01/05 10:10:44;;;;;;;9.35;4.90;;;8.20;71.30;;;;;;4992815;28;20392;-63
2024/01/05 10:13:10;;;;;;;8.65;4.93;;;8.20;71.20;;;;;;5004642;28;20050;-63
2024/01/05 10:15:50;;;;;;;8.48;5.35;;;8.20;71.30;;;;;;5004299;28;20022;-63
2024/01/05 10:18:16;;;;;;;11.10;4.90;;;8.30;71.40;;;;;;4998305;28;20034;-63
2024/01/05 10:20:42;;;;;;;9.52;5.13;;;8.30;71.40;;;;;;5005863;28;20104;-62
2024/01/05 10:23:08;;;;;;;11.73;5.22;;;8.30;71.50;;;;;;5004068;28;20120;-63
2024/01/05 10:25:36;;;;;;;9.75;5.63;;;8.40;71.60;;;;;;5001971;28;20087;-63
2024/01/05 10:28:31;;;;;;;12.20;5.70;;;8.40;71.50;;;;;;5001201;28;20022;-63
2024/01/05 10:31:16;;;;;;;10.27;5.20;;;8.50;71.30;;;;;;5000856;28;20046;-62
2024/01/05 10:33:55;;;;;;;12.45;5.80;;;8.50;71.40;;;;;;5001291;28;20161;-64
2024/01/05 10:36:22;;;;;;;16.70;7.13;;;8.50;71.40;;;;;;5003156;28;20065;-63
2024/01/05 10:38:49;;;;;;;11.90;6.55;;;8.60;71.50;;;;;;5005287;28;20503;-63
2024/01/05 10:41:22;;;;;;;10.20;6.53;;;8.60;71.40;;;;;;5003762;28;20076;-63
2024/01/05 10:43:49;;;;;;;11.00;6.85;;;8.70;71.30;;;;;;5003061;28;20072;-63
2024/01/05 10:46:20;;;;;;;12.80;6.45;;;8.70;71.20;;;;;;5001284;28;20062;-63
2024/01/05 10:48:46;;;;;;;15.70;6.65;;;8.70;71.00;;;;;;5003297;28;20030;-64
2024/01/05 10:51:16;;;;;;;11.88;6.18;;;8.80;70.90;;;;;;5004320;28;20096;-62
2024/01/05 10:53:46;;;;;;;13.35;5.90;;;8.80;71.00;;;;;;5003433;28;20103;-64
2024/01/05 10:56:13;;;;;;;11.02;5.57;;;8.80;71.10;;;;;;5003713;28;20488;-64
2024/01/05 10:58:39;;;;;;;11.07;6.07;;;8.80;71.10;;;;;;4997921;28;20027;-62
2024/01/05 11:01:09;;;;;;;12.38;6.63;;;8.90;70.90;;;;;;4998108;28;20038;-63
2024/01/05 11:03:43;;;;;;;13.65;7.03;;;8.90;70.70;;;;;;5005646;28;20033;-63
2024/01/05 11:06:10;;;;;;;15.80;7.15;;;8.90;70.50;;;;;;4997006;28;20037;-63
2024/01/05 11:09:09;;;;;;;15.15;7.20;;;8.90;70.60;;;;;;5019583;28;20029;-63
2024/01/05 11:12:10;;;;;;;12.70;6.40;;;8.90;70.50;;;;;;5040286;28;20038;-63
2024/01/05 11:14:36;;;;;;;8.77;5.68;;;8.90;70.60;;;;;;5026225;28;20018;-62
2024/01/05 11:17:19;;;;;;;13.98;6.20;;;9.00;70.80;;;;;;5018683;28;20121;-64
2024/01/05 11:20:19;;;;;;;11.57;5.82;;;9.00;70.80;;;;;;5000418;28;20034;-62
2024/01/05 11:22:48;;;;;;;12.95;5.25;;;9.00;70.80;;;;;;4995528;28;20725;-62
2024/01/05 11:25:15;;;;;;;10.63;5.20;;;9.00;70.80;;;;;;5001329;28;20476;-63
2024/01/05 11:27:46;;;;;;;13.10;6.45;;;9.00;70.80;;;;;;5005522;28;20037;-63
2024/01/05 11:30:11;;;;;;;16.95;6.97;;;9.10;70.90;;;;;;5003059;28;20436;-63
2024/01/05 11:32:47;;;;;;;16.90;6.93;;;9.10;70.80;;;;;;5000487;28;20164;-63
2024/01/05 11:35:16;;;;;;;15.95;6.95;;;9.10;70.70;;;;;;5002823;28;20785;-62
2024/01/05 11:37:43;;;;;;;12.30;5.25;;;9.10;70.80;;;;;;5002035;28;20038;-62
2024/01/05 11:40:31;;;;;;;10.02;5.05;;;9.10;70.70;;;;;;5005190;28;20535;-63
2024/01/05 11:42:58;;;;;;;13.80;5.25;;;9.10;70.90;;;;;;4998773;28;20029;-62
2024/01/05 11:45:52;;;;;;;17.55;6.47;;;9.10;70.90;;;;;;4993020;28;20034;-62
2024/01/05 11:48:33;;;;;;;10.70;5.50;;;9.10;71.00;;;;;;5000803;28;20116;-64
2024/01/05 11:51:09;;;;;;;13.98;5.05;;;9.20;71.20;;;;;;5003797;28;20052;-63
2024/01/05 11:53:34;;;;;;;9.95;5.15;;;9.20;71.10;;;;;;5001181;28;20453;-62
2024/01/05 11:56:03;;;;;;;7.88;4.75;;;9.20;71.10;;;;;;5002049;28;20064;-64
2024/01/05 11:58:33;;;;;;;19.02;9.40;;;9.20;71.10;;;;;;4997448;28;20035;-63
2024/01/05 12:00:59;;;;;;;10.20;6.70;;;9.30;71.10;;;;;;5001628;28;20033;-63
2024/01/05 12:03:26;;;;;;;10.48;5.15;;;9.30;70.90;;;;;;5003390;28;20025;-64
2024/01/05 12:05:57;;;;;;;9.10;4.55;;;9.30;70.80;;;;;;4996991;28;20652;-63
2024/01/05 12:08:23;;;;;;;8.60;4.95;;;9.30;70.80;;;;;;5000600;28;20030;-63
2024/01/05 12:10:56;;;;;;;8.55;4.63;;;9.30;70.80;;;;;;4998218;28;20025;-63
2024/01/05 12:13:29;;;;;;;7.03;3.88;;;9.40;70.70;;;;;;4999229;28;20085;-62
2024/01/05 12:15:56;;;;;;;8.50;4.35;;;9.30;70.70;;;;;;5000771;28;20033;-63
2024/01/05 12:18:26;;;;;;;7.35;4.38;;;9.40;70.70;;;;;;5003011;28;20087;-63
2024/01/05 12:21:02;;;;;;;8.48;4.82;;;9.40;70.70;;;;;;5000517;28;20539;-63
2024/01/05 12:23:31;;;;;;;7.15;4.22;;;9.40;70.70;;;;;;5001668;28;20493;-63
2024/01/05 12:26:08;;;;;;;7.90;4.20;;;9.40;70.80;;;;;;5000416;28;20084;-63
2024/01/05 12:28:36;;;;;;;6.75;3.78;;;9.40;70.80;;;;;;5002370;28;20033;-63
2024/01/05 12:31:04;;;;;;;8.65;4.40;;;9.50;70.90;;;;;;4999490;28;20042;-63
2024/01/05 12:33:31;;;;;;;8.98;4.13;;;9.50;70.70;;;;;;4997387;28;20026;-62
2024/01/05 12:35:57;;;;;;;7.22;3.80;;;9.60;70.60;;;;;;5003246;28;20041;-63
2024/01/05 12:38:23;;;;;;;11.45;4.18;;;9.60;70.50;;;;;;5003478;28;20021;-64
2024/01/05 12:40:50;;;;;;;11.23;3.88;;;9.60;70.40;;;;;;4997359;28;20034;-62
2024/01/05 12:43:16;;;;;;;6.18;4.00;;;9.70;70.50;;;;;;5001581;28;20033;-63
2024/01/05 12:45:42;;;;;;;8.85;4.50;;;9.70;70.20;;;;;;4897092;28;20049;-63
2024/01/05 12:48:12;;;;;;;11.90;5.22;;;9.70;70.10;;;;;;4997778;28;20038;-63
2024/01/05 12:50:37;;;;;;;18.17;8.25;;;9.70;70.00;;;;;;5001181;28;20112;-62